AAL7589 KSAN-MMPR
Flight info
| Callsign | AAL7589 |
|---|---|
| Flight time | N/A |
| Altitude | 37000 |
| Route | ZZOOO4 CENZA DCT TIJ UT4 LMM UJ3 MZT J141 OBRUG OBRUG1B |
| Aircraft | B738/M-SDE2E3FGHIRWXY/LB1 |
Departure
| Time | N/A |
|---|---|
| Airport | San Diego International Airport (KSAN) |
Arrival
| Time | 2026-04-30 00:05 |
|---|---|
| Airport | Puerto Vallarta International Airport (MMPR) |
| Time | Latitude | Longitude | Altitude | Speed | Heading |
|---|---|---|---|---|---|
| 2026-04-29 22:19 | 29.58699 | -113.36247 | 36946 ft | 458 kts | 145° |
| 2026-04-29 22:20 | 29.56454 | -113.33643 | 36950 ft | 458 kts | 145° |
| 2026-04-29 22:20 | 29.51964 | -113.28442 | 36951 ft | 459 kts | 145° |
| 2026-04-29 22:21 | 29.47460 | -113.23231 | 36951 ft | 459 kts | 145° |
| 2026-04-29 22:21 | 29.42953 | -113.18024 | 36950 ft | 460 kts | 145° |
| 2026-04-29 22:22 | 29.38449 | -113.12826 | 36945 ft | 459 kts | 145° |
| 2026-04-29 22:22 | 29.33978 | -113.07674 | 36942 ft | 458 kts | 145° |
| 2026-04-29 22:23 | 29.29489 | -113.02509 | 36954 ft | 457 kts | 145° |
| 2026-04-29 22:23 | 29.25004 | -112.97355 | 36947 ft | 456 kts | 145° |
| 2026-04-29 22:24 | 29.20515 | -112.92204 | 36947 ft | 456 kts | 145° |
| 2026-04-29 22:24 | 29.16041 | -112.87076 | 36943 ft | 455 kts | 145° |
| 2026-04-29 22:25 | 29.11567 | -112.81956 | 36950 ft | 454 kts | 145° |
| 2026-04-29 22:25 | 29.07100 | -112.76850 | 36939 ft | 454 kts | 145° |
| 2026-04-29 22:26 | 29.02632 | -112.71750 | 36951 ft | 454 kts | 145° |
| 2026-04-29 22:26 | 28.98190 | -112.66686 | 36947 ft | 454 kts | 145° |
| 2026-04-29 22:27 | 28.93707 | -112.61583 | 36943 ft | 454 kts | 145° |
| 2026-04-29 22:27 | 28.89227 | -112.56488 | 36937 ft | 455 kts | 145° |
| 2026-04-29 22:28 | 28.84736 | -112.51388 | 36948 ft | 456 kts | 145° |
| 2026-04-29 22:28 | 28.80234 | -112.46283 | 36939 ft | 457 kts | 145° |
| 2026-04-29 22:29 | 28.75719 | -112.41168 | 36930 ft | 457 kts | 145° |
| 2026-04-29 22:29 | 28.71235 | -112.36094 | 36936 ft | 457 kts | 145° |
| 2026-04-29 22:30 | 28.66717 | -112.30988 | 36928 ft | 457 kts | 145° |
| 2026-04-29 22:30 | 28.62199 | -112.25889 | 36932 ft | 457 kts | 145° |
| 2026-04-29 22:31 | 28.57683 | -112.20801 | 36932 ft | 457 kts | 145° |
| 2026-04-29 22:31 | 28.53166 | -112.15716 | 36926 ft | 457 kts | 145° |
| 2026-04-29 22:32 | 28.48651 | -112.10640 | 36922 ft | 455 kts | 145° |
| 2026-04-29 22:32 | 28.44147 | -112.05582 | 36922 ft | 455 kts | 145° |
| 2026-04-29 22:33 | 28.39647 | -112.00538 | 36926 ft | 454 kts | 146° |
| 2026-04-29 22:33 | 28.35170 | -111.95525 | 36926 ft | 454 kts | 146° |
| 2026-04-29 22:34 | 28.30674 | -111.90496 | 36923 ft | 454 kts | 146° |
| 2026-04-29 22:34 | 28.26174 | -111.85468 | 36918 ft | 453 kts | 146° |
| 2026-04-29 22:35 | 28.21688 | -111.80464 | 36924 ft | 452 kts | 146° |
| 2026-04-29 22:35 | 28.17200 | -111.75464 | 36918 ft | 452 kts | 146° |
| 2026-04-29 22:36 | 28.12714 | -111.70471 | 36918 ft | 452 kts | 146° |
| 2026-04-29 22:36 | 28.08230 | -111.65488 | 36919 ft | 452 kts | 146° |
| 2026-04-29 22:37 | 28.03769 | -111.60537 | 36913 ft | 452 kts | 145° |
| 2026-04-29 22:37 | 27.99275 | -111.55554 | 36922 ft | 452 kts | 145° |
| 2026-04-29 22:38 | 27.94785 | -111.50582 | 36921 ft | 452 kts | 145° |
| 2026-04-29 22:38 | 27.90282 | -111.45601 | 36921 ft | 453 kts | 145° |
| 2026-04-29 22:39 | 27.85776 | -111.40624 | 36921 ft | 453 kts | 145° |
| 2026-04-29 22:39 | 27.81265 | -111.35646 | 36892 ft | 453 kts | 144° |
| 2026-04-29 22:40 | 27.76751 | -111.30671 | 36915 ft | 453 kts | 144° |
| 2026-04-29 22:40 | 27.72223 | -111.25688 | 36915 ft | 454 kts | 144° |
| 2026-04-29 22:41 | 27.67697 | -111.20715 | 36914 ft | 455 kts | 144° |
| 2026-04-29 22:41 | 27.63160 | -111.15733 | 36911 ft | 455 kts | 144° |
| 2026-04-29 22:42 | 27.58616 | -111.10751 | 36896 ft | 456 kts | 144° |
| 2026-04-29 22:42 | 27.54090 | -111.05794 | 36897 ft | 457 kts | 144° |
| 2026-04-29 22:43 | 27.49528 | -111.00803 | 36909 ft | 458 kts | 144° |
| 2026-04-29 22:43 | 27.44956 | -110.95808 | 36900 ft | 459 kts | 144° |
| 2026-04-29 22:44 | 27.40363 | -110.90795 | 36902 ft | 459 kts | 144° |
| 2026-04-29 22:44 | 27.35770 | -110.85789 | 36910 ft | 460 kts | 144° |
| 2026-04-29 22:45 | 27.31173 | -110.80785 | 36899 ft | 460 kts | 144° |
| 2026-04-29 22:45 | 27.26574 | -110.75784 | 36906 ft | 460 kts | 144° |
| 2026-04-29 22:46 | 27.21970 | -110.70784 | 36907 ft | 460 kts | 144° |
| 2026-04-29 22:46 | 27.17360 | -110.65784 | 36904 ft | 461 kts | 144° |
| 2026-04-29 22:47 | 27.12777 | -110.60819 | 36904 ft | 461 kts | 144° |
| 2026-04-29 22:47 | 27.08162 | -110.55825 | 36883 ft | 461 kts | 144° |
| 2026-04-29 22:48 | 27.03541 | -110.50830 | 36896 ft | 461 kts | 144° |
| 2026-04-29 22:48 | 26.98923 | -110.45846 | 36891 ft | 461 kts | 144° |
| 2026-04-29 22:49 | 26.94302 | -110.40864 | 36894 ft | 461 kts | 144° |
| 2026-04-29 22:49 | 26.89678 | -110.35885 | 36894 ft | 461 kts | 144° |
| 2026-04-29 22:50 | 26.85049 | -110.30907 | 36868 ft | 461 kts | 144° |
| 2026-04-29 22:50 | 26.80421 | -110.25934 | 36888 ft | 461 kts | 144° |
| 2026-04-29 22:51 | 26.75816 | -110.20993 | 36897 ft | 461 kts | 144° |
| 2026-04-29 22:51 | 26.68863 | -110.13544 | 36889 ft | 461 kts | 144° |
| 2026-04-29 22:52 | 26.64219 | -110.08576 | 36886 ft | 461 kts | 144° |
| 2026-04-29 22:52 | 26.59579 | -110.03617 | 36866 ft | 461 kts | 144° |
| 2026-04-29 22:53 | 26.54940 | -109.98666 | 36878 ft | 461 kts | 144° |
| 2026-04-29 22:53 | 26.50305 | -109.93724 | 36884 ft | 460 kts | 144° |
| 2026-04-29 22:54 | 26.45696 | -109.88816 | 36881 ft | 460 kts | 144° |
| 2026-04-29 22:54 | 26.41062 | -109.83888 | 36883 ft | 460 kts | 144° |
| 2026-04-29 22:55 | 26.36430 | -109.78968 | 36882 ft | 460 kts | 144° |
| 2026-04-29 22:55 | 26.31794 | -109.74049 | 36884 ft | 459 kts | 144° |
| 2026-04-29 22:56 | 26.27165 | -109.69142 | 36884 ft | 459 kts | 144° |
| 2026-04-29 22:56 | 26.22530 | -109.64235 | 36890 ft | 459 kts | 144° |
| 2026-04-29 22:57 | 26.17896 | -109.59334 | 36889 ft | 459 kts | 144° |
| 2026-04-29 22:57 | 26.13296 | -109.54475 | 36890 ft | 459 kts | 144° |
| 2026-04-29 22:58 | 26.08642 | -109.49562 | 36883 ft | 458 kts | 144° |
| 2026-04-29 22:58 | 26.04042 | -109.44714 | 36876 ft | 458 kts | 144° |
| 2026-04-29 22:59 | 25.99410 | -109.39840 | 36891 ft | 458 kts | 144° |
| 2026-04-29 22:59 | 25.94783 | -109.34972 | 36896 ft | 458 kts | 144° |
| 2026-04-29 23:00 | 25.90149 | -109.30101 | 36899 ft | 459 kts | 144° |
| 2026-04-29 23:00 | 25.85509 | -109.25228 | 36886 ft | 459 kts | 144° |
| 2026-04-29 23:01 | 25.80862 | -109.20353 | 36899 ft | 459 kts | 144° |
| 2026-04-29 23:01 | 25.76213 | -109.15482 | 36888 ft | 459 kts | 144° |
| 2026-04-29 23:02 | 25.71601 | -109.10654 | 36889 ft | 459 kts | 144° |
| 2026-04-29 23:02 | 25.66971 | -109.05783 | 36888 ft | 460 kts | 142° |
| 2026-04-29 23:03 | 25.62501 | -109.00691 | 36890 ft | 461 kts | 141° |
| 2026-04-29 23:03 | 25.58079 | -108.95548 | 36877 ft | 460 kts | 140° |
| 2026-04-29 23:04 | 25.53666 | -108.90478 | 36870 ft | 453 kts | 140° |
| 2026-04-29 23:04 | 25.49286 | -108.85474 | 36875 ft | 452 kts | 140° |
| 2026-04-29 23:05 | 25.45639 | -108.81320 | 36863 ft | 452 kts | 141° |
| 2026-04-29 23:05 | 25.41259 | -108.76336 | 36863 ft | 452 kts | 141° |
| 2026-04-29 23:06 | 25.36872 | -108.71348 | 36865 ft | 453 kts | 141° |
| 2026-04-29 23:06 | 25.32475 | -108.66354 | 36862 ft | 453 kts | 140° |
| 2026-04-29 23:07 | 25.28069 | -108.61372 | 36851 ft | 454 kts | 140° |
| 2026-04-29 23:07 | 25.23646 | -108.56378 | 36852 ft | 454 kts | 140° |
| 2026-04-29 23:08 | 25.19252 | -108.51418 | 36851 ft | 454 kts | 140° |
| 2026-04-29 23:08 | 25.14833 | -108.46434 | 36852 ft | 454 kts | 140° |
| 2026-04-29 23:09 | 25.10410 | -108.41451 | 36845 ft | 454 kts | 140° |
| 2026-04-29 23:09 | 25.05995 | -108.36479 | 36847 ft | 453 kts | 140° |
| 2026-04-29 23:10 | 25.01584 | -108.31511 | 36849 ft | 452 kts | 140° |
| 2026-04-29 23:10 | 24.97186 | -108.26559 | 36846 ft | 452 kts | 140° |
| 2026-04-29 23:11 | 24.92787 | -108.21614 | 36845 ft | 451 kts | 140° |
| 2026-04-29 23:11 | 24.88397 | -108.16684 | 36846 ft | 450 kts | 140° |
| 2026-04-29 23:12 | 24.84010 | -108.11762 | 36847 ft | 450 kts | 140° |
| 2026-04-29 23:12 | 24.79652 | -108.06878 | 36838 ft | 450 kts | 140° |
| 2026-04-29 23:13 | 24.75256 | -108.01957 | 36851 ft | 451 kts | 140° |
| 2026-04-29 23:13 | 24.70852 | -107.97033 | 36851 ft | 452 kts | 140° |
| 2026-04-29 23:14 | 24.66433 | -107.92097 | 36850 ft | 453 kts | 140° |
| 2026-04-29 23:14 | 24.62000 | -107.87151 | 36839 ft | 455 kts | 140° |
| 2026-04-29 23:15 | 24.57551 | -107.82191 | 36834 ft | 456 kts | 140° |
| 2026-04-29 23:15 | 24.53098 | -107.77232 | 36834 ft | 456 kts | 140° |
| 2026-04-29 23:16 | 24.48636 | -107.72268 | 36833 ft | 456 kts | 140° |
| 2026-04-29 23:16 | 24.44195 | -107.67334 | 36843 ft | 457 kts | 140° |
| 2026-04-29 23:17 | 24.39726 | -107.62374 | 36844 ft | 457 kts | 140° |
| 2026-04-29 23:17 | 24.35257 | -107.57419 | 36835 ft | 457 kts | 140° |
| 2026-04-29 23:18 | 24.30775 | -107.52454 | 36827 ft | 457 kts | 140° |
| 2026-04-29 23:18 | 24.26297 | -107.47501 | 36832 ft | 457 kts | 139° |
| 2026-04-29 23:19 | 24.21822 | -107.42554 | 36835 ft | 457 kts | 139° |
| 2026-04-29 23:19 | 24.17339 | -107.37605 | 36846 ft | 457 kts | 139° |
| 2026-04-29 23:20 | 24.12868 | -107.32674 | 36830 ft | 457 kts | 139° |
| 2026-04-29 23:20 | 24.08390 | -107.27739 | 36831 ft | 456 kts | 139° |
| 2026-04-29 23:21 | 24.03921 | -107.22821 | 36834 ft | 455 kts | 139° |
| 2026-04-29 23:21 | 23.99458 | -107.17915 | 36826 ft | 454 kts | 139° |
| 2026-04-29 23:22 | 23.95025 | -107.13046 | 36835 ft | 454 kts | 139° |
| 2026-04-29 23:22 | 23.90569 | -107.08156 | 36841 ft | 454 kts | 139° |
| 2026-04-29 23:23 | 23.86111 | -107.03271 | 36846 ft | 454 kts | 139° |
| 2026-04-29 23:23 | 23.81651 | -106.98387 | 36850 ft | 454 kts | 139° |
| 2026-04-29 23:24 | 23.77172 | -106.93489 | 36848 ft | 454 kts | 139° |
| 2026-04-29 23:24 | 23.72738 | -106.88644 | 36848 ft | 455 kts | 139° |
| 2026-04-29 23:25 | 23.68264 | -106.83760 | 36847 ft | 455 kts | 139° |
| 2026-04-29 23:25 | 23.63791 | -106.78883 | 36850 ft | 455 kts | 139° |
| 2026-04-29 23:26 | 23.59303 | -106.73992 | 36852 ft | 456 kts | 139° |
| 2026-04-29 23:26 | 23.54814 | -106.69106 | 36846 ft | 456 kts | 139° |
| 2026-04-29 23:27 | 23.50317 | -106.64217 | 36846 ft | 456 kts | 139° |
| 2026-04-29 23:27 | 23.45826 | -106.59334 | 36836 ft | 456 kts | 138° |
| 2026-04-29 23:28 | 23.41363 | -106.54481 | 36851 ft | 457 kts | 138° |
| 2026-04-29 23:28 | 23.36860 | -106.49590 | 36846 ft | 457 kts | 138° |
| 2026-04-29 23:29 | 23.32346 | -106.44692 | 36854 ft | 458 kts | 138° |
| 2026-04-29 23:29 | 23.27830 | -106.39796 | 36850 ft | 458 kts | 138° |
| 2026-04-29 23:30 | 23.23308 | -106.34898 | 36850 ft | 459 kts | 138° |
| 2026-04-29 23:30 | 23.18780 | -106.30002 | 36842 ft | 459 kts | 139° |
| 2026-04-29 23:31 | 23.13699 | -106.26035 | 36850 ft | 450 kts | 158° |
| 2026-04-29 23:31 | 23.07929 | -106.23516 | 36850 ft | 446 kts | 163° |
| 2026-04-29 23:32 | 23.02124 | -106.21133 | 36854 ft | 446 kts | 163° |
| 2026-04-29 23:32 | 22.96319 | -106.18703 | 36562 ft | 450 kts | 162° |
| 2026-04-29 23:33 | 22.93413 | -106.17473 | 36088 ft | 446 kts | 162° |
| 2026-04-29 23:33 | 22.90537 | -106.16251 | 35648 ft | 442 kts | 162° |
| 2026-04-29 23:33 | 22.87676 | -106.15036 | 35219 ft | 439 kts | 162° |
| 2026-04-29 23:33 | 22.84838 | -106.13832 | 34799 ft | 436 kts | 162° |
| 2026-04-29 23:34 | 22.82018 | -106.12637 | 34385 ft | 434 kts | 162° |
| 2026-04-29 23:34 | 22.79215 | -106.11450 | 33977 ft | 431 kts | 162° |
| 2026-04-29 23:34 | 22.76427 | -106.10271 | 33535 ft | 429 kts | 162° |
| 2026-04-29 23:34 | 22.73656 | -106.09099 | 33083 ft | 426 kts | 162° |
| 2026-04-29 23:35 | 22.70899 | -106.07934 | 32621 ft | 424 kts | 162° |
| 2026-04-29 23:35 | 22.68159 | -106.06776 | 32179 ft | 421 kts | 163° |
| 2026-04-29 23:35 | 22.65435 | -106.05626 | 31739 ft | 419 kts | 163° |
| 2026-04-29 23:35 | 22.62719 | -106.04479 | 31308 ft | 417 kts | 163° |
| 2026-04-29 23:36 | 22.60031 | -106.03345 | 30871 ft | 414 kts | 162° |
| 2026-04-29 23:36 | 22.57345 | -106.02212 | 30461 ft | 412 kts | 162° |
| 2026-04-29 23:36 | 22.54680 | -106.01088 | 30050 ft | 410 kts | 162° |
| 2026-04-29 23:36 | 22.52065 | -105.99985 | 29600 ft | 408 kts | 162° |
| 2026-04-29 23:37 | 22.49431 | -105.98875 | 29118 ft | 405 kts | 162° |
| 2026-04-29 23:37 | 22.46814 | -105.97772 | 28654 ft | 402 kts | 162° |
| 2026-04-29 23:37 | 22.44214 | -105.96677 | 28187 ft | 400 kts | 162° |
| 2026-04-29 23:37 | 22.41630 | -105.95590 | 27730 ft | 397 kts | 162° |
| 2026-04-29 23:38 | 22.39062 | -105.94510 | 27290 ft | 395 kts | 162° |
| 2026-04-29 23:38 | 22.36510 | -105.93436 | 26851 ft | 392 kts | 162° |
| 2026-04-29 23:38 | 22.33973 | -105.92370 | 26415 ft | 390 kts | 162° |
| 2026-04-29 23:38 | 22.31456 | -105.91312 | 25990 ft | 388 kts | 162° |
| 2026-04-29 23:39 | 22.28943 | -105.90256 | 25568 ft | 386 kts | 161° |
| 2026-04-29 23:39 | 22.26449 | -105.89209 | 25152 ft | 383 kts | 161° |
| 2026-04-29 23:39 | 22.23969 | -105.88168 | 24744 ft | 381 kts | 161° |
| 2026-04-29 23:39 | 22.21502 | -105.87133 | 24340 ft | 379 kts | 161° |
| 2026-04-29 23:40 | 22.19043 | -105.86101 | 23947 ft | 377 kts | 161° |
| 2026-04-29 23:40 | 22.16607 | -105.85080 | 23555 ft | 375 kts | 161° |
| 2026-04-29 23:40 | 22.14173 | -105.84059 | 23117 ft | 374 kts | 161° |
| 2026-04-29 23:40 | 22.11772 | -105.83053 | 22863 ft | 366 kts | 161° |
| 2026-04-29 23:41 | 22.09468 | -105.82086 | 22828 ft | 353 kts | 161° |
| 2026-04-29 23:41 | 22.07192 | -105.81131 | 22816 ft | 340 kts | 161° |
| 2026-04-29 23:41 | 22.05010 | -105.80218 | 22824 ft | 335 kts | 161° |
| 2026-04-29 23:41 | 22.02822 | -105.79304 | 22844 ft | 341 kts | 161° |
| 2026-04-29 23:42 | 22.00590 | -105.78372 | 22848 ft | 347 kts | 161° |
| 2026-04-29 23:42 | 21.98344 | -105.77434 | 22836 ft | 345 kts | 161° |
| 2026-04-29 23:42 | 21.96118 | -105.76502 | 22830 ft | 342 kts | 160° |
| 2026-04-29 23:42 | 21.93932 | -105.75588 | 22837 ft | 340 kts | 161° |
| 2026-04-29 23:43 | 21.91733 | -105.74668 | 22833 ft | 338 kts | 161° |
| 2026-04-29 23:43 | 21.89541 | -105.73752 | 22835 ft | 338 kts | 161° |
| 2026-04-29 23:43 | 21.87350 | -105.72837 | 22838 ft | 338 kts | 161° |
| 2026-04-29 23:43 | 21.85145 | -105.71916 | 22712 ft | 345 kts | 161° |
| 2026-04-29 23:44 | 21.82882 | -105.70973 | 22228 ft | 350 kts | 161° |
| 2026-04-29 23:44 | 21.80599 | -105.70020 | 21782 ft | 351 kts | 160° |
| 2026-04-29 23:44 | 21.78325 | -105.69059 | 21340 ft | 351 kts | 158° |
| 2026-04-29 23:44 | 21.76156 | -105.67851 | 20901 ft | 352 kts | 151° |
| 2026-04-29 23:45 | 21.74071 | -105.66472 | 20478 ft | 352 kts | 150° |
| 2026-04-29 23:45 | 21.72035 | -105.65069 | 20047 ft | 351 kts | 149° |
| 2026-04-29 23:45 | 21.69979 | -105.63655 | 19644 ft | 350 kts | 148° |
| 2026-04-29 23:45 | 21.67897 | -105.62240 | 19231 ft | 350 kts | 148° |
| 2026-04-29 23:46 | 21.65900 | -105.60897 | 18837 ft | 349 kts | 148° |
| 2026-04-29 23:46 | 21.63929 | -105.59582 | 18451 ft | 348 kts | 148° |
| 2026-04-29 23:46 | 21.61841 | -105.58198 | 18042 ft | 348 kts | 148° |
| 2026-04-29 23:46 | 21.59807 | -105.56854 | 17591 ft | 347 kts | 148° |
| 2026-04-29 23:47 | 21.57751 | -105.55499 | 17140 ft | 346 kts | 148° |
| 2026-04-29 23:47 | 21.55701 | -105.54149 | 16698 ft | 345 kts | 148° |
| 2026-04-29 23:47 | 21.53652 | -105.52802 | 16264 ft | 344 kts | 148° |
| 2026-04-29 23:47 | 21.51612 | -105.51461 | 15827 ft | 343 kts | 148° |
| 2026-04-29 23:48 | 21.49580 | -105.50125 | 15396 ft | 342 kts | 149° |
| 2026-04-29 23:48 | 21.47557 | -105.48796 | 14983 ft | 341 kts | 149° |
| 2026-04-29 23:48 | 21.45541 | -105.47472 | 14581 ft | 340 kts | 149° |
| 2026-04-29 23:48 | 21.43530 | -105.46152 | 14173 ft | 338 kts | 149° |
| 2026-04-29 23:49 | 21.41527 | -105.44837 | 13770 ft | 337 kts | 149° |
| 2026-04-29 23:49 | 21.39527 | -105.43525 | 13335 ft | 336 kts | 148° |
| 2026-04-29 23:49 | 21.37543 | -105.42223 | 13021 ft | 331 kts | 148° |
| 2026-04-29 23:49 | 21.35618 | -105.40960 | 12975 ft | 317 kts | 148° |
| 2026-04-29 23:50 | 21.33773 | -105.39751 | 12956 ft | 304 kts | 148° |
| 2026-04-29 23:50 | 21.32020 | -105.38602 | 12982 ft | 286 kts | 148° |
| 2026-04-29 23:50 | 21.28841 | -105.36521 | 12760 ft | 256 kts | 148° |
| 2026-04-29 23:51 | 21.27324 | -105.35528 | 12332 ft | 254 kts | 148° |
| 2026-04-29 23:51 | 21.25817 | -105.34543 | 11892 ft | 253 kts | 148° |
| 2026-04-29 23:51 | 21.24823 | -105.33892 | 11607 ft | 253 kts | 148° |
| 2026-04-29 23:51 | 21.23316 | -105.32906 | 11177 ft | 252 kts | 148° |
| 2026-04-29 23:52 | 21.21823 | -105.31930 | 10755 ft | 252 kts | 148° |
| 2026-04-29 23:52 | 21.20328 | -105.30952 | 10348 ft | 251 kts | 148° |
| 2026-04-29 23:52 | 21.18835 | -105.29976 | 9934 ft | 251 kts | 148° |
| 2026-04-29 23:52 | 21.17349 | -105.29005 | 9515 ft | 250 kts | 148° |
| 2026-04-29 23:53 | 21.15857 | -105.28029 | 9045 ft | 251 kts | 148° |
| 2026-04-29 23:53 | 21.14370 | -105.27058 | 8624 ft | 251 kts | 148° |
| 2026-04-29 23:53 | 21.12872 | -105.26079 | 8197 ft | 251 kts | 148° |
| 2026-04-29 23:53 | 21.11385 | -105.25108 | 7773 ft | 251 kts | 148° |
| 2026-04-29 23:54 | 21.09891 | -105.24133 | 7360 ft | 252 kts | 148° |
| 2026-04-29 23:54 | 21.08416 | -105.23169 | 6938 ft | 252 kts | 147° |
| 2026-04-29 23:54 | 21.06924 | -105.22196 | 6554 ft | 251 kts | 148° |
| 2026-04-29 23:54 | 21.05428 | -105.21218 | 6147 ft | 252 kts | 148° |
| 2026-04-29 23:55 | 21.03933 | -105.20241 | 5709 ft | 253 kts | 148° |
| 2026-04-29 23:55 | 21.02425 | -105.19260 | 5297 ft | 253 kts | 149° |
| 2026-04-29 23:55 | 21.00931 | -105.18288 | 5026 ft | 246 kts | 149° |
| 2026-04-29 23:55 | 20.99525 | -105.17370 | 4983 ft | 227 kts | 148° |
| 2026-04-29 23:56 | 20.98232 | -105.16525 | 4955 ft | 209 kts | 149° |
| 2026-04-29 23:56 | 20.97000 | -105.15724 | 4995 ft | 211 kts | 149° |
| 2026-04-29 23:56 | 20.95731 | -105.14896 | 4995 ft | 212 kts | 149° |
| 2026-04-29 23:56 | 20.94501 | -105.14094 | 5004 ft | 204 kts | 149° |
| 2026-04-29 23:57 | 20.93302 | -105.13315 | 4809 ft | 201 kts | 149° |
| 2026-04-29 23:57 | 20.92121 | -105.12544 | 4555 ft | 196 kts | 148° |
| 2026-04-29 23:57 | 20.91047 | -105.11672 | 4307 ft | 192 kts | 141° |
| 2026-04-29 23:57 | 20.90029 | -105.10766 | 4071 ft | 188 kts | 140° |
| 2026-04-29 23:58 | 20.89020 | -105.09868 | 4029 ft | 193 kts | 141° |
| 2026-04-29 23:58 | 20.88003 | -105.08969 | 4007 ft | 189 kts | 141° |
| 2026-04-29 23:58 | 20.87002 | -105.08087 | 3980 ft | 183 kts | 142° |
| 2026-04-29 23:58 | 20.86040 | -105.07238 | 3994 ft | 176 kts | 141° |
| 2026-04-29 23:59 | 20.84965 | -105.06740 | 3995 ft | 169 kts | 184° |
| 2026-04-29 23:59 | 20.83900 | -105.07206 | 3860 ft | 169 kts | 226° |
| 2026-04-29 23:59 | 20.83097 | -105.08112 | 3722 ft | 168 kts | 228° |
| 2026-04-29 23:59 | 20.82310 | -105.09010 | 3510 ft | 162 kts | 228° |
| 2026-04-30 00:00 | 20.81566 | -105.09860 | 3299 ft | 150 kts | 227° |
| 2026-04-30 00:00 | 20.80864 | -105.10662 | 3127 ft | 150 kts | 228° |
| 2026-04-30 00:00 | 20.80154 | -105.11476 | 2994 ft | 151 kts | 228° |
| 2026-04-30 00:00 | 20.79452 | -105.12282 | 2809 ft | 146 kts | 229° |
| 2026-04-30 00:01 | 20.78750 | -105.13087 | 2630 ft | 151 kts | 229° |
| 2026-04-30 00:01 | 20.78032 | -105.13913 | 2505 ft | 152 kts | 229° |
| 2026-04-30 00:01 | 20.77317 | -105.14735 | 2327 ft | 150 kts | 229° |
| 2026-04-30 00:01 | 20.76611 | -105.15549 | 2164 ft | 149 kts | 228° |
| 2026-04-30 00:02 | 20.75900 | -105.16360 | 2023 ft | 149 kts | 229° |
| 2026-04-30 00:02 | 20.75196 | -105.17167 | 1831 ft | 148 kts | 229° |
| 2026-04-30 00:02 | 20.74495 | -105.17973 | 1693 ft | 149 kts | 229° |
| 2026-04-30 00:02 | 20.73777 | -105.18797 | 1483 ft | 151 kts | 230° |
| 2026-04-30 00:03 | 20.73066 | -105.19612 | 1264 ft | 148 kts | 229° |
| 2026-04-30 00:03 | 20.72382 | -105.20398 | 1054 ft | 146 kts | 229° |
| 2026-04-30 00:03 | 20.71683 | -105.21200 | 884 ft | 148 kts | 228° |
| 2026-04-30 00:03 | 20.70975 | -105.22016 | 698 ft | 153 kts | 228° |
| 2026-04-30 00:04 | 20.70255 | -105.22856 | 501 ft | 151 kts | 227° |
| 2026-04-30 00:04 | 20.69545 | -105.23644 | 265 ft | 141 kts | 228° |
| 2026-04-30 00:04 | 20.68937 | -105.24373 | 53 ft | 122 kts | 224° |
| 2026-04-30 00:04 | 20.68410 | -105.24972 | 22 ft | 90 kts | 226° |
| 2026-04-30 00:05 | 20.68138 | -105.25273 | 23 ft | 32 kts | 225° |
| 2026-04-30 00:05 | 20.67970 | -105.25283 | 21 ft | 21 kts | 127° |
| 2026-04-30 00:05 | 20.67987 | -105.25188 | 22 ft | 14 kts | 47° |
| 2026-04-30 00:05 | 20.68057 | -105.25108 | 22 ft | 19 kts | 45° |
| 2026-04-30 00:06 | 20.68035 | -105.24985 | 22 ft | 20 kts | 138° |
| 2026-04-30 00:06 | 20.67992 | -105.24861 | 22 ft | 17 kts | 97° |
| 2026-04-30 00:06 | 20.67937 | -105.24843 | 22 ft | 8 kts | 207° |
| 2026-04-30 00:06 | 20.67927 | -105.24860 | 22 ft | 0 kts | 251° |